PRIVATE WETTERSTATION BILLIGHEIM-ALLFELD                       ZURCK
Wetterdaten: Dienstag, 24.06.2014
Datum Zeit Temp. A. Temp. A. min Temp. A. max Feuchte A. Luftdruck Regen Wind Richtung Richtung Sonnenschein ET Solar Taupunkt Windchill Windben Empfang
24.06.2014 00:00 16,2 C 16,2 C 16,3 C 61 % 1017,1 hPa 0,0 l/m 0,0 km/h (0 Bft) W-NW 292 0 min 0,025 mm 0 W/m 8,7 C 16,2 C 1,6 km/h (1 Bft) 99 %
24.06.2014 00:10 16,1 C 16,1 C 16,2 C 61 % 1017,1 hPa 0,0 l/m 0,0 km/h (0 Bft) W-NW 292 0 min 0,000 mm 0 W/m 8,6 C 16,1 C 3,2 km/h (1 Bft) 100 %
24.06.2014 00:20 15,9 C 15,9 C 16,1 C 62 % 1017,1 hPa 0,0 l/m 0,0 km/h (0 Bft) W-NW 292 0 min 0,000 mm 0 W/m 8,6 C 15,9 C 1,6 km/h (1 Bft) 99 %
24.06.2014 00:30 15,7 C 15,7 C 15,9 C 62 % 1017,1 hPa 0,0 l/m 0,0 km/h (0 Bft) W-NW 292 0 min 0,000 mm 0 W/m 8,4 C 15,7 C 1,6 km/h (1 Bft) 100 %
24.06.2014 00:40 15,6 C 15,6 C 15,7 C 63 % 1017,0 hPa 0,0 l/m 0,0 km/h (0 Bft) W-NW 292 0 min 0,000 mm 0 W/m 8,6 C 15,6 C 8,0 km/h (2 Bft) 100 %
24.06.2014 00:50 15,4 C 15,4 C 15,6 C 63 % 1017,0 hPa 0,0 l/m 0,0 km/h (0 Bft) SW 225 0 min 0,000 mm 0 W/m 8,4 C 15,4 C 4,8 km/h (1 Bft) 100 %
24.06.2014 01:00 15,4 C 15,4 C 15,5 C 64 % 1017,2 hPa 0,0 l/m 0,0 km/h (0 Bft) S-SW 202 0 min 0,025 mm 0 W/m 8,6 C 15,4 C 8,0 km/h (2 Bft) 100 %
24.06.2014 01:10 15,3 C 15,3 C 15,4 C 62 % 1017,2 hPa 0,0 l/m 0,0 km/h (0 Bft) S-SW 202 0 min 0,000 mm 0 W/m 8,1 C 15,3 C 1,6 km/h (1 Bft) 100 %
24.06.2014 01:20 15,2 C 15,2 C 15,3 C 63 % 1017,0 hPa 0,0 l/m 0,0 km/h (0 Bft) S-SW 202 0 min 0,000 mm 0 W/m 8,2 C 15,2 C 4,8 km/h (1 Bft) 100 %
24.06.2014 01:30 15,1 C 15,1 C 15,2 C 64 % 1016,9 hPa 0,0 l/m 0,0 km/h (0 Bft) N 0 0 min 0,000 mm 0 W/m 8,3 C 15,1 C 0,0 km/h (0 Bft) 100 %
24.06.2014 01:40 15,1 C 15,1 C 15,1 C 64 % 1016,8 hPa 0,0 l/m 0,0 km/h (0 Bft) S-SW 202 0 min 0,000 mm 0 W/m 8,3 C 15,1 C 4,8 km/h (1 Bft) 100 %
24.06.2014 01:50 14,8 C 14,8 C 15,1 C 65 % 1016,8 hPa 0,0 l/m 0,0 km/h (0 Bft) S-SW 202 0 min 0,000 mm 0 W/m 8,3 C 14,8 C 3,2 km/h (1 Bft) 100 %
24.06.2014 02:00 14,7 C 14,7 C 14,8 C 65 % 1016,7 hPa 0,0 l/m 0,0 km/h (0 Bft) N 0 0 min 0,025 mm 0 W/m 8,2 C 14,7 C 0,0 km/h (0 Bft) 100 %
24.06.2014 02:10 14,6 C 14,6 C 14,7 C 66 % 1016,7 hPa 0,0 l/m 0,0 km/h (0 Bft) N 0 0 min 0,000 mm 0 W/m 8,3 C 14,6 C 0,0 km/h (0 Bft) 100 %
24.06.2014 02:20 14,4 C 14,4 C 14,6 C 67 % 1016,7 hPa 0,0 l/m 0,0 km/h (0 Bft) N 0 0 min 0,000 mm 0 W/m 8,4 C 14,4 C 0,0 km/h (0 Bft) 100 %
24.06.2014 02:30 14,2 C 14,2 C 14,4 C 67 % 1016,6 hPa 0,0 l/m 0,0 km/h (0 Bft) S-SW 202 0 min 0,000 mm 0 W/m 8,2 C 14,2 C 1,6 km/h (1 Bft) 100 %
24.06.2014 02:40 14,1 C 14,1 C 14,2 C 68 % 1016,6 hPa 0,0 l/m 0,0 km/h (0 Bft) S-SW 202 0 min 0,000 mm 0 W/m 8,3 C 14,1 C 1,6 km/h (1 Bft) 100 %
24.06.2014 02:50 13,9 C 13,9 C 14,1 C 68 % 1016,5 hPa 0,0 l/m 0,0 km/h (0 Bft) S-SW 202 0 min 0,000 mm 0 W/m 8,1 C 13,9 C 1,6 km/h (1 Bft) 100 %
24.06.2014 03:00 13,8 C 13,8 C 13,9 C 69 % 1016,6 hPa 0,0 l/m 0,0 km/h (0 Bft) N 0 0 min 0,025 mm 0 W/m 8,2 C 13,8 C 0,0 km/h (0 Bft) 100 %
24.06.2014 03:10 13,6 C 13,6 C 13,8 C 70 % 1016,5 hPa 0,0 l/m 0,0 km/h (0 Bft) N 0 0 min 0,000 mm 0 W/m 8,2 C 13,6 C 0,0 km/h (0 Bft) 100 %
24.06.2014 03:20 13,5 C 13,5 C 13,7 C 70 % 1016,5 hPa 0,0 l/m 0,0 km/h (0 Bft) N 0 0 min 0,000 mm 0 W/m 8,1 C 13,5 C 0,0 km/h (0 Bft) 100 %
24.06.2014 03:30 13,3 C 13,3 C 13,5 C 71 % 1016,5 hPa 0,0 l/m 0,0 km/h (0 Bft) N 0 0 min 0,000 mm 0 W/m 8,2 C 13,3 C 0,0 km/h (0 Bft) 99 %
24.06.2014 03:40 13,1 C 13,1 C 13,3 C 72 % 1016,5 hPa 0,0 l/m 0,0 km/h (0 Bft) N 0 0 min 0,000 mm 0 W/m 8,2 C 13,1 C 0,0 km/h (0 Bft) 100 %
24.06.2014 03:50 12,9 C 12,9 C 13,1 C 72 % 1016,4 hPa 0,0 l/m 0,0 km/h (0 Bft) N 0 0 min 0,000 mm 0 W/m 8,0 C 12,9 C 0,0 km/h (0 Bft) 100 %
24.06.2014 04:00 12,7 C 12,7 C 12,9 C 73 % 1016,4 hPa 0,0 l/m 0,0 km/h (0 Bft) N 0 0 min 0,025 mm 0 W/m 8,0 C 12,7 C 0,0 km/h (0 Bft) 100 %
24.06.2014 04:10 12,4 C 12,4 C 12,7 C 74 % 1016,4 hPa 0,0 l/m 0,0 km/h (0 Bft) N 0 0 min 0,000 mm 0 W/m 7,9 C 12,4 C 0,0 km/h (0 Bft) 100 %
24.06.2014 04:20 12,2 C 12,2 C 12,4 C 75 % 1016,4 hPa 0,0 l/m 0,0 km/h (0 Bft) N 0 0 min 0,000 mm 0 W/m 7,9 C 12,2 C 0,0 km/h (0 Bft) 100 %
24.06.2014 04:30 12,0 C 12,0 C 12,2 C 75 % 1016,4 hPa 0,0 l/m 0,0 km/h (0 Bft) N 0 0 min 0,000 mm 0 W/m 7,7 C 12,0 C 0,0 km/h (0 Bft) 100 %
24.06.2014 04:40 11,9 C 11,9 C 12,0 C 76 % 1016,3 hPa 0,0 l/m 0,0 km/h (0 Bft) N 0 0 min 0,000 mm 0 W/m 7,8 C 11,9 C 0,0 km/h (0 Bft) 99 %
24.06.2014 04:50 11,7 C 11,7 C 11,9 C 77 % 1016,5 hPa 0,0 l/m 0,0 km/h (0 Bft) N 0 0 min 0,000 mm 0 W/m 7,8 C 11,7 C 0,0 km/h (0 Bft) 100 %
24.06.2014 05:00 11,5 C 11,5 C 11,7 C 77 % 1016,5 hPa 0,0 l/m 0,0 km/h (0 Bft) N 0 0 min 0,025 mm 0 W/m 7,6 C 11,5 C 0,0 km/h (0 Bft) 100 %
24.06.2014 05:10 11,4 C 11,4 C 11,5 C 77 % 1016,5 hPa 0,0 l/m 0,0 km/h (0 Bft) N 0 0 min 0,000 mm 0 W/m 7,5 C 11,4 C 0,0 km/h (0 Bft) 100 %
24.06.2014 05:20 11,2 C 11,2 C 11,4 C 78 % 1016,5 hPa 0,0 l/m 0,0 km/h (0 Bft) N 0 0 min 0,000 mm 5 W/m 7,5 C 11,2 C 0,0 km/h (0 Bft) 100 %
24.06.2014 05:30 11,1 C 11,1 C 11,2 C 79 % 1016,6 hPa 0,0 l/m 0,0 km/h (0 Bft) N 0 0 min 0,000 mm 9 W/m 7,6 C 11,1 C 0,0 km/h (0 Bft) 100 %
24.06.2014 05:40 10,9 C 10,9 C 11,1 C 79 % 1016,6 hPa 0,0 l/m 0,0 km/h (0 Bft) N 0 0 min 0,000 mm 12 W/m 7,4 C 10,9 C 0,0 km/h (0 Bft) 100 %
24.06.2014 05:50 10,8 C 10,8 C 10,9 C 80 % 1016,6 hPa 0,0 l/m 0,0 km/h (0 Bft) N 0 0 min 0,000 mm 16 W/m 7,5 C 10,8 C 0,0 km/h (0 Bft) 100 %
24.06.2014 06:00 10,7 C 10,7 C 10,8 C 81 % 1016,5 hPa 0,0 l/m 0,0 km/h (0 Bft) N 0 0 min 0,000 mm 18 W/m 7,6 C 10,7 C 0,0 km/h (0 Bft) 100 %
24.06.2014 06:10 10,6 C 10,6 C 10,7 C 81 % 1016,5 hPa 0,0 l/m 0,0 km/h (0 Bft) N 0 0 min 0,000 mm 18 W/m 7,5 C 10,6 C 0,0 km/h (0 Bft) 100 %
24.06.2014 06:20 10,5 C 10,5 C 10,6 C 82 % 1016,6 hPa 0,0 l/m 0,0 km/h (0 Bft) N 0 0 min 0,000 mm 18 W/m 7,6 C 10,5 C 0,0 km/h (0 Bft) 100 %
24.06.2014 06:30 10,4 C 10,4 C 10,5 C 82 % 1016,6 hPa 0,0 l/m 0,0 km/h (0 Bft) N 0 0 min 0,000 mm 19 W/m 7,5 C 10,4 C 0,0 km/h (0 Bft) 99 %
24.06.2014 06:40 10,4 C 10,4 C 10,4 C 82 % 1016,7 hPa 0,0 l/m 0,0 km/h (0 Bft) N 0 0 min 0,000 mm 19 W/m 7,5 C 10,4 C 0,0 km/h (0 Bft) 100 %
24.06.2014 06:50 10,4 C 10,4 C 10,4 C 83 % 1016,7 hPa 0,0 l/m 0,0 km/h (0 Bft) N 0 0 min 0,000 mm 21 W/m 7,6 C 10,4 C 0,0 km/h (0 Bft) 100 %
24.06.2014 07:00 10,4 C 10,4 C 10,4 C 83 % 1016,7 hPa 0,0 l/m 0,0 km/h (0 Bft) N 0 0 min 0,000 mm 21 W/m 7,6 C 10,4 C 0,0 km/h (0 Bft) 99 %
24.06.2014 07:10 10,5 C 10,4 C 10,5 C 84 % 1016,8 hPa 0,0 l/m 0,0 km/h (0 Bft) N 0 0 min 0,000 mm 23 W/m 7,9 C 10,5 C 0,0 km/h (0 Bft) 100 %
24.06.2014 07:20 10,6 C 10,5 C 10,6 C 84 % 1016,8 hPa 0,0 l/m 0,0 km/h (0 Bft) N 0 0 min 0,000 mm 25 W/m 8,0 C 10,6 C 0,0 km/h (0 Bft) 100 %
24.06.2014 07:30 10,8 C 10,6 C 10,8 C 84 % 1016,7 hPa 0,0 l/m 0,0 km/h (0 Bft) N 0 0 min 0,000 mm 25 W/m 8,2 C 10,8 C 0,0 km/h (0 Bft) 99 %
24.06.2014 07:40 11,2 C 10,8 C 11,2 C 83 % 1016,7 hPa 0,0 l/m 0,0 km/h (0 Bft) N 0 0 min 0,000 mm 26 W/m 8,4 C 11,2 C 0,0 km/h (0 Bft) 100 %
24.06.2014 07:50 11,6 C 11,2 C 11,6 C 82 % 1016,7 hPa 0,0 l/m 0,0 km/h (0 Bft) N 0 0 min 0,000 mm 28 W/m 8,6 C 11,6 C 0,0 km/h (0 Bft) 100 %
24.06.2014 08:00 12,2 C 11,6 C 12,2 C 80 % 1016,7 hPa 0,0 l/m 0,0 km/h (0 Bft) N 0 0 min 0,025 mm 30 W/m 8,9 C 12,2 C 0,0 km/h (0 Bft) 100 %
24.06.2014 08:10 12,7 C 12,2 C 12,7 C 78 % 1016,6 hPa 0,0 l/m 0,0 km/h (0 Bft) SW 225 0 min 0,000 mm 35 W/m 9,0 C 12,7 C 1,6 km/h (1 Bft) 100 %
24.06.2014 08:20 13,3 C 12,7 C 13,3 C 76 % 1016,7 hPa 0,0 l/m 0,0 km/h (0 Bft) SW 225 10 min 0,000 mm 394 W/m 9,2 C 13,3 C 1,6 km/h (1 Bft) 100 %
24.06.2014 08:30 14,4 C 13,3 C 14,4 C 73 % 1016,8 hPa 0,0 l/m 0,0 km/h (0 Bft) SW 225 10 min 0,000 mm 418 W/m 9,6 C 14,4 C 6,4 km/h (2 Bft) 99 %
24.06.2014 08:40 15,7 C 13,3 C 15,7 C 68 % 1016,7 hPa 0,0 l/m 0,3 km/h (0 Bft) NW 309 10 min 0,000 mm 450 W/m 9,8 C 15,7 C 4,8 km/h (1 Bft) 99 %
24.06.2014 08:50 16,8 C 15,7 C 16,8 C 67 % 1016,8 hPa 0,0 l/m 0,4 km/h (0 Bft) NW 316 10 min 0,000 mm 476 W/m 10,6 C 16,8 C 4,8 km/h (1 Bft) 100 %
24.06.2014 09:00 17,7 C 16,8 C 17,7 C 61 % 1016,9 hPa 0,0 l/m 0,3 km/h (0 Bft) SW 236 10 min 0,155 mm 504 W/m 10,1 C 17,7 C 6,4 km/h (2 Bft) 100 %
24.06.2014 09:10 18,4 C 17,7 C 18,4 C 58 % 1016,8 hPa 0,0 l/m 0,2 km/h (0 Bft) S-SW 200 10 min 0,000 mm 531 W/m 10,0 C 18,4 C 4,8 km/h (1 Bft) 100 %
24.06.2014 09:20 18,9 C 18,4 C 18,9 C 58 % 1016,9 hPa 0,0 l/m 0,5 km/h (0 Bft) S-SW 205 10 min 0,000 mm 555 W/m 10,5 C 18,9 C 4,8 km/h (1 Bft) 100 %
24.06.2014 09:30 19,3 C 18,9 C 19,3 C 54 % 1017,0 hPa 0,0 l/m 0,6 km/h (0 Bft) O-NO 74 10 min 0,000 mm 582 W/m 9,8 C 19,3 C 4,8 km/h (1 Bft) 100 %
24.06.2014 09:40 19,5 C 19,3 C 19,5 C 53 % 1017,0 hPa 0,0 l/m 0,9 km/h (0 Bft) NW 325 10 min 0,000 mm 601 W/m 9,7 C 19,5 C 8,0 km/h (2 Bft) 100 %
24.06.2014 09:50 19,6 C 19,5 C 19,6 C 53 % 1017,0 hPa 0,0 l/m 1,8 km/h (1 Bft) N-NO 28 10 min 0,000 mm 626 W/m 9,8 C 19,6 C 11,3 km/h (2 Bft) 100 %
24.06.2014 10:00 20,1 C 19,6 C 20,1 C 51 % 1017,0 hPa 0,0 l/m 0,2 km/h (0 Bft) N-NW 340 10 min 0,000 mm 647 W/m 9,6 C 20,1 C 3,2 km/h (1 Bft) 100 %
24.06.2014 10:10 20,4 C 20,1 C 20,4 C 49 % 1017,0 hPa 0,0 l/m 2,6 km/h (1 Bft) NW 319 10 min 0,330 mm 668 W/m 9,3 C 20,4 C 11,3 km/h (2 Bft) 100 %
24.06.2014 10:20 20,4 C 20,4 C 20,5 C 51 % 1017,0 hPa 0,0 l/m 0,4 km/h (0 Bft) N-NW 333 10 min 0,000 mm 686 W/m 9,9 C 20,4 C 4,8 km/h (1 Bft) 100 %
24.06.2014 10:30 20,6 C 20,4 C 20,6 C 49 % 1016,8 hPa 0,0 l/m 2,2 km/h (1 Bft) NW 312 10 min 0,000 mm 714 W/m 9,5 C 20,6 C 9,7 km/h (2 Bft) 100 %
24.06.2014 10:40 20,9 C 20,6 C 20,9 C 48 % 1016,8 hPa 0,0 l/m 0,9 km/h (0 Bft) N-NW 344 10 min 0,000 mm 735 W/m 9,5 C 20,9 C 8,0 km/h (2 Bft) 100 %
24.06.2014 10:50 21,2 C 20,9 C 21,2 C 49 % 1016,7 hPa 0,0 l/m 0,2 km/h (0 Bft) NO 36 10 min 0,000 mm 752 W/m 10,1 C 21,2 C 4,8 km/h (1 Bft) 100 %
24.06.2014 11:00 21,4 C 21,2 C 21,4 C 48 % 1016,6 hPa 0,0 l/m 1,2 km/h (1 Bft) NW 313 10 min 0,432 mm 770 W/m 9,9 C 21,4 C 8,0 km/h (2 Bft) 100 %
24.06.2014 11:10 21,4 C 21,4 C 21,5 C 49 % 1016,6 hPa 0,0 l/m 4,9 km/h (1 Bft) W-NW 297 10 min 0,000 mm 782 W/m 10,2 C 21,4 C 12,9 km/h (3 Bft) 100 %
24.06.2014 11:20 21,4 C 21,4 C 21,6 C 47 % 1016,6 hPa 0,0 l/m 0,8 km/h (0 Bft) N 5 10 min 0,000 mm 800 W/m 9,6 C 21,4 C 9,7 km/h (2 Bft) 100 %
24.06.2014 11:30 21,6 C 21,3 C 21,6 C 47 % 1016,4 hPa 0,0 l/m 1,5 km/h (1 Bft) S-SO 156 10 min 0,000 mm 814 W/m 9,8 C 21,6 C 8,0 km/h (2 Bft) 100 %
24.06.2014 11:40 22,0 C 21,6 C 22,1 C 47 % 1016,5 hPa 0,0 l/m 1,5 km/h (1 Bft) SO 136 10 min 0,000 mm 830 W/m 10,2 C 22,0 C 11,3 km/h (2 Bft) 100 %
24.06.2014 11:50 22,2 C 22,0 C 22,2 C 45 % 1016,2 hPa 0,0 l/m 2,7 km/h (1 Bft) NW 317 10 min 0,000 mm 840 W/m 9,7 C 22,2 C 11,3 km/h (2 Bft) 100 %
24.06.2014 12:00 22,4 C 22,2 C 22,4 C 45 % 1016,3 hPa 0,0 l/m 1,5 km/h (1 Bft) N-NO 19 10 min 0,508 mm 849 W/m 9,9 C 22,4 C 9,7 km/h (2 Bft) 100 %
24.06.2014 12:10 22,7 C 22,4 C 22,7 C 44 % 1016,3 hPa 0,0 l/m 0,9 km/h (0 Bft) NO 38 10 min 0,000 mm 863 W/m 9,8 C 22,7 C 9,7 km/h (2 Bft) 100 %
24.06.2014 12:20 22,8 C 22,7 C 22,8 C 44 % 1016,0 hPa 0,0 l/m 1,1 km/h (1 Bft) NW 307 10 min 0,000 mm 875 W/m 9,9 C 22,8 C 6,4 km/h (2 Bft) 100 %
24.06.2014 12:30 23,1 C 22,8 C 23,1 C 44 % 1015,8 hPa 0,0 l/m 3,0 km/h (1 Bft) NW 312 10 min 0,000 mm 879 W/m 10,2 C 23,1 C 14,5 km/h (3 Bft) 99 %
24.06.2014 12:40 23,3 C 23,1 C 23,3 C 42 % 1015,8 hPa 0,0 l/m 3,9 km/h (1 Bft) NW 325 10 min 0,000 mm 898 W/m 9,7 C 23,3 C 11,3 km/h (2 Bft) 100 %
24.06.2014 12:50 23,4 C 23,2 C 23,4 C 41 % 1015,7 hPa 0,0 l/m 0,1 km/h (0 Bft) N-NW 346 10 min 0,000 mm 907 W/m 9,4 C 23,4 C 1,6 km/h (1 Bft) 100 %
24.06.2014 13:00 23,6 C 23,4 C 23,6 C 42 % 1015,6 hPa 0,0 l/m 0,8 km/h (0 Bft) NW 308 10 min 0,559 mm 898 W/m 9,9 C 23,6 C 9,7 km/h (2 Bft) 100 %
24.06.2014 13:10 23,6 C 23,6 C 23,7 C 40 % 1015,6 hPa 0,0 l/m 0,5 km/h (0 Bft) O 101 10 min 0,000 mm 900 W/m 9,2 C 23,6 C 4,8 km/h (1 Bft) 100 %
24.06.2014 13:20 23,3 C 23,3 C 23,6 C 43 % 1015,4 hPa 0,0 l/m 1,1 km/h (1 Bft) N-NW 332 10 min 0,000 mm 918 W/m 10,0 C 23,3 C 9,7 km/h (2 Bft) 100 %
24.06.2014 13:30 23,2 C 23,2 C 23,5 C 43 % 1015,5 hPa 0,0 l/m 3,5 km/h (1 Bft) S-SO 153 10 min 0,000 mm 954 W/m 9,9 C 23,2 C 11,3 km/h (2 Bft) 100 %
24.06.2014 13:40 23,6 C 23,2 C 23,6 C 40 % 1015,3 hPa 0,0 l/m 2,2 km/h (1 Bft) N-NW 333 10 min 0,000 mm 997 W/m 9,2 C 23,6 C 9,7 km/h (2 Bft) 100 %
24.06.2014 13:50 23,1 C 23,1 C 23,6 C 43 % 1015,2 hPa 0,0 l/m 2,3 km/h (1 Bft) NW 321 10 min 0,000 mm 993 W/m 9,8 C 23,1 C 9,7 km/h (2 Bft) 100 %
24.06.2014 14:00 23,5 C 23,1 C 23,5 C 41 % 1015,1 hPa 0,0 l/m 2,8 km/h (1 Bft) NW 311 10 min 0,533 mm 909 W/m 9,5 C 23,5 C 8,0 km/h (2 Bft) 100 %
24.06.2014 14:10 24,3 C 23,5 C 24,3 C 39 % 1014,9 hPa 0,0 l/m 4,2 km/h (1 Bft) W-NW 288 10 min 0,000 mm 923 W/m 9,4 C 24,3 C 14,5 km/h (3 Bft) 100 %
24.06.2014 14:20 24,8 C 24,3 C 24,8 C 37 % 1014,7 hPa 0,0 l/m 1,9 km/h (1 Bft) W 265 10 min 0,000 mm 921 W/m 9,1 C 24,8 C 9,7 km/h (2 Bft) 100 %
24.06.2014 14:30 24,9 C 24,8 C 25,0 C 39 % 1014,7 hPa 0,0 l/m 1,5 km/h (1 Bft) O 92 10 min 0,000 mm 232 W/m 10,0 C 24,9 C 9,7 km/h (2 Bft) 100 %
24.06.2014 14:40 24,7 C 24,6 C 24,9 C 38 % 1014,6 hPa 0,0 l/m 4,2 km/h (1 Bft) NW 315 10 min 0,000 mm 930 W/m 9,4 C 24,7 C 16,1 km/h (3 Bft) 100 %
24.06.2014 14:50 24,8 C 24,7 C 24,8 C 38 % 1014,6 hPa 0,0 l/m 3,5 km/h (1 Bft) W-NW 296 10 min 0,000 mm 904 W/m 9,5 C 24,8 C 16,1 km/h (3 Bft) 100 %
24.06.2014 15:00 25,2 C 24,8 C 25,2 C 38 % 1014,4 hPa 0,0 l/m 2,0 km/h (1 Bft) NW 311 10 min 0,559 mm 907 W/m 9,9 C 25,2 C 8,0 km/h (2 Bft) 100 %
24.06.2014 15:10 25,2 C 25,2 C 25,4 C 38 % 1014,3 hPa 0,0 l/m 1,9 km/h (1 Bft) SO 140 10 min 0,000 mm 907 W/m 9,9 C 25,2 C 12,9 km/h (3 Bft) 100 %
24.06.2014 15:20 25,6 C 25,2 C 25,6 C 36 % 1014,2 hPa 0,0 l/m 5,1 km/h (1 Bft) NW 313 10 min 0,000 mm 940 W/m 9,4 C 25,6 C 16,1 km/h (3 Bft) 100 %
24.06.2014 15:30 25,0 C 25,0 C 25,6 C 38 % 1014,1 hPa 0,0 l/m 2,0 km/h (1 Bft) N-NO 16 10 min 0,000 mm 373 W/m 9,7 C 25,0 C 11,3 km/h (2 Bft) 100 %
24.06.2014 15:40 25,3 C 24,9 C 25,3 C 39 % 1014,0 hPa 0,0 l/m 1,5 km/h (1 Bft) W-NW 298 10 min 0,000 mm 854 W/m 10,3 C 25,3 C 8,0 km/h (2 Bft) 100 %
24.06.2014 15:50 26,1 C 25,3 C 26,1 C 36 % 1013,8 hPa 0,0 l/m 5,9 km/h (2 Bft) W-NW 299 10 min 0,000 mm 826 W/m 9,8 C 26,1 C 11,3 km/h (2 Bft) 100 %
24.06.2014 16:00 26,2 C 26,1 C 26,3 C 36 % 1013,8 hPa 0,0 l/m 4,1 km/h (1 Bft) N 5 10 min 0,508 mm 821 W/m 9,9 C 26,2 C 11,3 km/h (2 Bft) 100 %
24.06.2014 16:10 25,4 C 25,4 C 26,2 C 37 % 1013,8 hPa 0,0 l/m 2,6 km/h (1 Bft) W-NW 289 10 min 0,000 mm 213 W/m 9,6 C 25,4 C 11,3 km/h (2 Bft) 100 %
24.06.2014 16:20 25,3 C 25,3 C 25,5 C 35 % 1013,7 hPa 0,0 l/m 3,7 km/h (1 Bft) W-NW 300 10 min 0,000 mm 225 W/m 8,7 C 25,3 C 11,3 km/h (2 Bft) 99 %
24.06.2014 16:30 24,8 C 24,8 C 25,3 C 37 % 1013,4 hPa 0,0 l/m 2,4 km/h (1 Bft) W 277 10 min 0,000 mm 172 W/m 9,1 C 24,8 C 8,0 km/h (2 Bft) 100 %
24.06.2014 16:40 24,4 C 24,4 C 24,8 C 40 % 1013,4 hPa 0,0 l/m 3,1 km/h (1 Bft) N 355 10 min 0,000 mm 178 W/m 9,9 C 24,4 C 11,3 km/h (2 Bft) 100 %
24.06.2014 16:50 24,1 C 24,1 C 24,4 C 41 % 1013,2 hPa 0,0 l/m 0,6 km/h (0 Bft) NW 312 10 min 0,000 mm 236 W/m 10,0 C 24,1 C 6,4 km/h (2 Bft) 100 %
24.06.2014 17:00 23,8 C 23,8 C 24,1 C 42 % 1013,1 hPa 0,0 l/m 1,0 km/h (0 Bft) NW 317 10 min 0,229 mm 204 W/m 10,1 C 23,8 C 6,4 km/h (2 Bft) 100 %
24.06.2014 17:10 23,6 C 23,6 C 23,8 C 42 % 1013,1 hPa 0,0 l/m 0,2 km/h (0 Bft) W-NW 300 10 min 0,000 mm 192 W/m 9,9 C 23,6 C 6,4 km/h (2 Bft) 100 %
24.06.2014 17:20 23,2 C 23,2 C 23,6 C 41 % 1013,0 hPa 0,0 l/m 0,1 km/h (0 Bft) W-NW 300 10 min 0,000 mm 156 W/m 9,2 C 23,2 C 3,2 km/h (1 Bft) 100 %
24.06.2014 17:30 23,2 C 23,2 C 23,2 C 45 % 1013,0 hPa 0,0 l/m 3,5 km/h (1 Bft) N 350 10 min 0,000 mm 348 W/m 10,6 C 23,2 C 16,1 km/h (3 Bft) 100 %
24.06.2014 17:40 23,8 C 23,2 C 23,8 C 42 % 1012,9 hPa 0,0 l/m 5,4 km/h (1 Bft) NW 313 10 min 0,000 mm 220 W/m 10,1 C 23,8 C 11,3 km/h (2 Bft) 100 %
24.06.2014 17:50 23,7 C 23,7 C 23,9 C 42 % 1012,8 hPa 0,0 l/m 0,3 km/h (0 Bft) N-NO 16 0 min 0,000 mm 148 W/m 10,0 C 23,7 C 4,8 km/h (1 Bft) 100 %
24.06.2014 18:00 23,7 C 23,6 C 23,7 C 42 % 1012,8 hPa 0,0 l/m 2,3 km/h (1 Bft) N-NO 15 10 min 0,178 mm 348 W/m 10,0 C 23,7 C 9,7 km/h (2 Bft) 100 %
24.06.2014 18:10 23,9 C 23,7 C 23,9 C 42 % 1012,6 hPa 0,0 l/m 1,9 km/h (1 Bft) W-NW 284 10 min 0,000 mm 262 W/m 10,2 C 23,9 C 8,0 km/h (2 Bft) 100 %
24.06.2014 18:20 24,2 C 23,9 C 24,2 C 40 % 1012,5 hPa 0,0 l/m 5,0 km/h (1 Bft) W-NW 299 10 min 0,000 mm 434 W/m 9,7 C 24,2 C 14,5 km/h (3 Bft) 100 %
24.06.2014 18:30 24,3 C 24,2 C 24,3 C 40 % 1012,4 hPa 0,0 l/m 4,3 km/h (1 Bft) N-NW 336 0 min 0,000 mm 135 W/m 9,8 C 24,3 C 9,7 km/h (2 Bft) 100 %
24.06.2014 18:40 24,3 C 24,3 C 24,4 C 39 % 1012,2 hPa 0,0 l/m 2,8 km/h (1 Bft) W 260 10 min 0,000 mm 353 W/m 9,4 C 24,3 C 11,3 km/h (2 Bft) 100 %
24.06.2014 18:50 24,1 C 24,1 C 24,3 C 40 % 1012,1 hPa 0,0 l/m 1,3 km/h (1 Bft) N 350 10 min 0,000 mm 322 W/m 9,6 C 24,1 C 6,4 km/h (2 Bft) 100 %
24.06.2014 19:00 24,1 C 24,1 C 24,2 C 39 % 1012,1 hPa 0,0 l/m 0,8 km/h (0 Bft) N-NW 339 10 min 0,228 mm 295 W/m 9,3 C 24,1 C 4,8 km/h (1 Bft) 100 %
24.06.2014 19:10 23,7 C 23,7 C 24,1 C 41 % 1012,0 hPa 0,0 l/m 0,0 km/h (0 Bft) N-NW 339 0 min 0,000 mm 49 W/m 9,7 C 23,7 C 1,6 km/h (1 Bft) 100 %
24.06.2014 19:20 23,1 C 23,1 C 23,7 C 42 % 1012,0 hPa 0,0 l/m 1,1 km/h (1 Bft) N 355 0 min 0,000 mm 144 W/m 9,5 C 23,1 C 9,7 km/h (2 Bft) 100 %
24.06.2014 19:30 22,9 C 22,9 C 23,1 C 43 % 1011,9 hPa 0,0 l/m 0,5 km/h (0 Bft) N-NW 345 10 min 0,000 mm 202 W/m 9,6 C 22,9 C 4,8 km/h (1 Bft) 100 %
24.06.2014 19:40 22,8 C 22,8 C 22,9 C 44 % 1011,9 hPa 0,0 l/m 0,8 km/h (0 Bft) NW 316 10 min 0,000 mm 181 W/m 9,9 C 22,8 C 8,0 km/h (2 Bft) 100 %
24.06.2014 19:50 22,6 C 22,6 C 22,8 C 44 % 1011,9 hPa 0,0 l/m 0,7 km/h (0 Bft) NW 325 0 min 0,000 mm 47 W/m 9,7 C 22,6 C 6,4 km/h (2 Bft) 100 %
24.06.2014 20:00 22,4 C 22,4 C 22,6 C 49 % 1011,9 hPa 0,0 l/m 0,2 km/h (0 Bft) N-NW 343 0 min 0,102 mm 60 W/m 11,2 C 22,4 C 6,4 km/h (2 Bft) 100 %
24.06.2014 20:10 21,9 C 21,9 C 22,4 C 51 % 1011,9 hPa 0,0 l/m 0,0 km/h (0 Bft) N-NW 345 0 min 0,000 mm 62 W/m 11,3 C 21,9 C 1,6 km/h (1 Bft) 100 %
24.06.2014 20:20 21,4 C 21,4 C 21,9 C 52 % 1011,9 hPa 0,0 l/m 0,0 km/h (0 Bft) N-NW 345 0 min 0,000 mm 40 W/m 11,1 C 21,4 C 0,0 km/h (0 Bft) 100 %
24.06.2014 20:30 21,1 C 21,1 C 21,4 C 53 % 1011,9 hPa 0,0 l/m 0,0 km/h (0 Bft) N-NW 345 0 min 0,000 mm 33 W/m 11,1 C 21,1 C 0,0 km/h (0 Bft) 100 %
24.06.2014 20:40 20,7 C 20,7 C 21,1 C 52 % 1011,8 hPa 0,0 l/m 0,0 km/h (0 Bft) N-NW 345 0 min 0,000 mm 18 W/m 10,5 C 20,7 C 1,6 km/h (1 Bft) 100 %
24.06.2014 20:50 20,2 C 20,2 C 20,7 C 53 % 1011,8 hPa 0,0 l/m 0,0 km/h (0 Bft) N-NW 345 0 min 0,000 mm 11 W/m 10,3 C 20,2 C 1,6 km/h (1 Bft) 100 %
24.06.2014 21:00 19,7 C 19,7 C 20,2 C 53 % 1011,8 hPa 0,0 l/m 0,0 km/h (0 Bft) N-NW 345 0 min 0,025 mm 7 W/m 9,8 C 19,7 C 0,0 km/h (0 Bft) 100 %
24.06.2014 21:10 19,1 C 19,1 C 19,7 C 55 % 1011,9 hPa 0,0 l/m 0,0 km/h (0 Bft) N 0 0 min 0,000 mm 7 W/m 9,8 C 19,1 C 0,0 km/h (0 Bft) 100 %
24.06.2014 21:20 18,8 C 18,8 C 19,1 C 56 % 1011,8 hPa 0,0 l/m 0,0 km/h (0 Bft) N 0 0 min 0,000 mm 5 W/m 9,8 C 18,8 C 0,0 km/h (0 Bft) 100 %
24.06.2014 21:30 18,3 C 18,3 C 18,8 C 58 % 1011,9 hPa 0,0 l/m 0,0 km/h (0 Bft) N 0 0 min 0,000 mm 0 W/m 9,9 C 18,3 C 0,0 km/h (0 Bft) 100 %
24.06.2014 21:40 17,9 C 17,9 C 18,3 C 59 % 1011,9 hPa 0,0 l/m 0,0 km/h (0 Bft) N 0 0 min 0,000 mm 0 W/m 9,8 C 17,9 C 0,0 km/h (0 Bft) 100 %
24.06.2014 21:50 17,4 C 17,4 C 17,9 C 61 % 1011,9 hPa 0,0 l/m 0,0 km/h (0 Bft) N 0 0 min 0,000 mm 0 W/m 9,8 C 17,4 C 0,0 km/h (0 Bft) 100 %
24.06.2014 22:00 17,1 C 17,1 C 17,4 C 62 % 1012,0 hPa 0,0 l/m 0,0 km/h (0 Bft) N 0 0 min 0,000 mm 0 W/m 9,8 C 17,1 C 0,0 km/h (0 Bft) 100 %
24.06.2014 22:10 16,9 C 16,9 C 17,1 C 64 % 1012,0 hPa 0,0 l/m 0,0 km/h (0 Bft) N 0 0 min 0,000 mm 0 W/m 10,0 C 16,9 C 0,0 km/h (0 Bft) 100 %
24.06.2014 22:20 16,7 C 16,7 C 16,9 C 63 % 1012,0 hPa 0,0 l/m 0,0 km/h (0 Bft) N-NW 337 0 min 0,000 mm 0 W/m 9,6 C 16,7 C 1,6 km/h (1 Bft) 100 %
24.06.2014 22:30 16,7 C 16,7 C 16,7 C 63 % 1012,0 hPa 0,0 l/m 0,0 km/h (0 Bft) N-NW 337 0 min 0,000 mm 0 W/m 9,6 C 16,7 C 1,6 km/h (1 Bft) 100 %
24.06.2014 22:40 16,8 C 16,7 C 16,8 C 63 % 1012,0 hPa 0,0 l/m 0,0 km/h (0 Bft) N-NW 337 0 min 0,000 mm 0 W/m 9,7 C 16,8 C 3,2 km/h (1 Bft) 100 %
24.06.2014 22:50 16,9 C 16,8 C 16,9 C 63 % 1011,9 hPa 0,0 l/m 0,0 km/h (0 Bft) N-NW 337 0 min 0,000 mm 0 W/m 9,8 C 16,9 C 1,6 km/h (1 Bft) 100 %
24.06.2014 23:00 17,0 C 16,9 C 17,0 C 64 % 1011,9 hPa 0,0 l/m 0,0 km/h (0 Bft) NW 315 0 min 0,025 mm 0 W/m 10,1 C 17,0 C 3,2 km/h (1 Bft) 100 %
24.06.2014 23:10 17,1 C 17,0 C 17,1 C 63 % 1011,9 hPa 0,0 l/m 0,0 km/h (0 Bft) NW 315 0 min 0,000 mm 0 W/m 10,0 C 17,1 C 3,2 km/h (1 Bft) 100 %
24.06.2014 23:20 17,2 C 17,1 C 17,2 C 64 % 1011,9 hPa 0,0 l/m 0,0 km/h (0 Bft) N 0 0 min 0,000 mm 0 W/m 10,3 C 17,2 C 0,0 km/h (0 Bft) 100 %
24.06.2014 23:30 17,2 C 17,2 C 17,2 C 64 % 1011,9 hPa 0,0 l/m 0,0 km/h (0 Bft) N 0 0 min 0,000 mm 0 W/m 10,3 C 17,2 C 0,0 km/h (0 Bft) 100 %
24.06.2014 23:40 17,1 C 17,1 C 17,2 C 65 % 1012,0 hPa 0,0 l/m 0,0 km/h (0 Bft) N 0 0 min 0,000 mm 0 W/m 10,5 C 17,1 C 0,0 km/h (0 Bft) 100 %
24.06.2014 23:50 16,9 C 16,9 C 17,1 C 66 % 1011,9 hPa 0,0 l/m 0,0 km/h (0 Bft) NW 315 0 min 0,000 mm 0 W/m 10,5 C 16,9 C 1,6 km/h (1 Bft) 100 %
_ Min-Zeit 06:30 06:30 06:40 16:20 20:40 - 00:00 - - - - - 05:40 06:30 01:30 07:00
Minimum _ 10,4 C 10,4 C 10,4 C 35 % 1011,8 hPa - 0,0 km/h (0 Bft) - - - - - 7,4 C 10,4 C 0,0 km/h (0 Bft) 99 %
_ Max-Zeit 16:00 16:00 16:00 07:10 01:00 00:00 15:50 - - 08:20 13:00 13:40 20:10 16:00 14:40 00:30
Maximum _ 26,3 C 26,1 C 26,3 C 84 % 1017,2 hPa 0,0 l/m 5,9 km/h
W-NW (2 Bft)
- - 10 min 0,559 mm 997 W/m 11,3 C 26,2 C 16,1 km/h
NW (3 Bft)
100 %
Durchschnitt _ 18,5 C 18,4 C 18,7 C 57 % 1015,0 hPa #0,0 l/m 0,9 km/h (0 Bft) NW - #10:50 h #4,546 mm 425 W/m 9,2 C 18,5 C 4,8 km/h (1 Bft) 100 %
PRIVATE WETTERSTATION BILLIGHEIM-ALLFELD - www.neckar-odenwald-wetter.de - Holger Sonntag